createdAt,value
2018-10-16T00:01:49.565Z,6.46
2018-10-16T00:06:53.825Z,6.33
2018-10-16T00:12:01.739Z,6.30
2018-10-16T00:17:05.021Z,6.33
2018-10-16T00:22:08.225Z,6.21
2018-10-16T00:27:11.413Z,6.18
2018-10-16T00:32:14.822Z,6.19
2018-10-16T00:37:18.185Z,6.12
2018-10-16T00:42:21.591Z,5.97
2018-10-16T00:47:25.124Z,5.86
2018-10-16T00:52:28.358Z,5.97
2018-10-16T00:57:31.697Z,5.90
2018-10-16T01:02:34.838Z,5.83
2018-10-16T01:07:38.020Z,5.75
2018-10-16T01:12:41.166Z,5.74
2018-10-16T01:17:44.645Z,5.70
2018-10-16T01:22:48.509Z,5.71
2018-10-16T01:27:51.946Z,5.70
2018-10-16T01:32:55.289Z,5.77
2018-10-16T01:37:58.530Z,5.76
2018-10-16T01:43:01.775Z,5.86
2018-10-16T01:48:04.982Z,5.94
2018-10-16T01:53:08.136Z,5.88
2018-10-16T01:58:11.566Z,5.80
2018-10-16T02:03:14.857Z,5.68
2018-10-16T02:08:18.668Z,5.57
2018-10-16T02:13:22.110Z,5.47
2018-10-16T02:18:25.343Z,5.43
2018-10-16T02:23:28.627Z,5.35
2018-10-16T02:28:31.826Z,5.46
2018-10-16T02:33:35.214Z,5.42
2018-10-16T02:38:38.382Z,5.29
2018-10-16T02:43:42.065Z,5.23
2018-10-16T02:48:45.270Z,5.13
2018-10-16T02:53:48.492Z,5.03
2018-10-16T02:58:51.721Z,4.95
2018-10-16T03:03:54.923Z,4.89
2018-10-16T03:08:58.189Z,4.85
2018-10-16T03:14:01.386Z,4.83
2018-10-16T03:19:04.664Z,4.78
2018-10-16T03:24:08.090Z,4.89
2018-10-16T03:29:11.269Z,4.89
2018-10-16T03:34:14.510Z,4.91
2018-10-16T03:39:17.820Z,4.88
2018-10-16T03:44:21.047Z,4.90
2018-10-16T03:49:24.286Z,5.13
2018-10-16T03:54:27.533Z,5.16
2018-10-16T03:59:30.806Z,5.08
2018-10-16T04:04:36.411Z,4.94
2018-10-16T04:09:39.634Z,4.95
2018-10-16T04:14:42.811Z,5.01
2018-10-16T04:19:46.028Z,4.96
2018-10-16T04:24:49.306Z,4.87
2018-10-16T04:29:53.133Z,4.88
2018-10-16T04:34:57.186Z,4.91
2018-10-16T04:40:00.639Z,5.08
2018-10-16T04:45:05.816Z,5.07
2018-10-16T04:50:09.160Z,5.06
2018-10-16T04:55:12.564Z,5.09
2018-10-16T05:00:20.680Z,5.02
2018-10-16T05:05:24.074Z,5.03
2018-10-16T05:10:27.306Z,5.01
2018-10-16T05:15:30.960Z,5.06
2018-10-16T05:20:34.286Z,5.27
2018-10-16T05:25:37.658Z,5.46
2018-10-16T05:30:40.858Z,5.54
2018-10-16T05:35:44.053Z,5.48
2018-10-16T05:40:47.261Z,5.67
2018-10-16T05:45:51.321Z,5.70
2018-10-16T05:50:54.506Z,5.79
2018-10-16T05:56:01.007Z,5.81
2018-10-16T06:01:04.361Z,5.88
2018-10-16T06:06:08.751Z,5.99
2018-10-16T06:11:11.907Z,6.12
2018-10-16T06:16:15.579Z,6.24
2018-10-16T06:21:18.841Z,6.27
2018-10-16T06:26:27.368Z,6.35
2018-10-16T06:31:30.630Z,6.52
2018-10-16T06:36:34.918Z,6.71
2018-10-16T06:41:38.947Z,6.83
2018-10-16T06:46:42.272Z,7.13
2018-10-16T06:51:45.350Z,7.31
2018-10-16T06:56:48.508Z,7.43
2018-10-16T07:01:51.770Z,7.76
2018-10-16T07:06:55.008Z,7.98
2018-10-16T07:11:58.147Z,8.29
2018-10-16T07:17:01.384Z,8.71
2018-10-16T07:22:04.725Z,9.07
2018-10-16T07:27:08.035Z,9.45
2018-10-16T07:32:11.299Z,9.85
2018-10-16T07:37:14.633Z,10.27
2018-10-16T07:42:17.896Z,10.61
2018-10-16T07:47:21.178Z,10.95
2018-10-16T07:52:24.301Z,11.43
2018-10-16T07:57:27.587Z,11.88
2018-10-16T08:02:30.824Z,12.29
2018-10-16T08:07:34.071Z,12.54
2018-10-16T08:12:38.210Z,12.83
2018-10-16T08:17:41.476Z,13.18
2018-10-16T08:22:44.660Z,13.47
2018-10-16T08:27:47.875Z,13.75
2018-10-16T08:32:51.051Z,14.08
2018-10-16T08:38:06.930Z,14.24
2018-10-16T08:43:26.068Z,14.53
2018-10-16T08:48:40.411Z,14.75
2018-10-16T08:53:43.625Z,15.15
2018-10-16T08:58:46.813Z,15.45
2018-10-16T09:03:50.063Z,15.66
2018-10-16T09:08:53.289Z,16.07
2018-10-16T09:13:56.525Z,16.27
2018-10-16T09:18:59.773Z,16.61
2018-10-16T10:27:11.844Z,24.54
2018-10-16T10:32:15.058Z,24.32
2018-10-16T10:37:18.748Z,24.82
2018-10-16T10:42:22.014Z,25.15
2018-10-16T10:47:25.436Z,24.75
2018-10-16T10:52:28.655Z,24.88
2018-10-16T10:57:31.787Z,24.85
2018-10-16T11:02:35.220Z,24.72
2018-10-16T11:07:38.386Z,25.12
2018-10-16T11:12:41.648Z,24.48
2018-10-16T11:17:44.917Z,23.89
2018-10-16T11:22:48.218Z,23.47
2018-10-16T11:27:51.505Z,24.05
2018-10-16T11:32:54.886Z,22.93
2018-10-16T11:37:58.051Z,22.32
2018-10-16T11:43:01.255Z,22.16
2018-10-16T11:48:04.702Z,21.90
2018-10-16T11:53:08.231Z,21.19
2018-10-16T11:58:11.539Z,21.78
2018-10-16T12:03:14.776Z,22.50
2018-10-16T12:08:18.271Z,22.97
2018-10-16T12:13:21.549Z,22.88
2018-10-16T12:18:24.745Z,23.40
2018-10-16T12:23:28.036Z,23.17
2018-10-16T12:28:31.195Z,22.70
2018-10-16T12:33:34.615Z,23.69
2018-10-16T12:38:37.827Z,24.18
2018-10-16T12:43:41.277Z,23.97
2018-10-16T12:48:44.704Z,24.49
2018-10-16T12:53:47.978Z,24.77
2018-10-16T12:58:51.524Z,24.37
2018-10-16T13:03:54.719Z,23.38
2018-10-16T13:08:57.951Z,23.70
2018-10-16T13:14:02.083Z,24.08
2018-10-16T13:19:05.527Z,24.55
2018-10-16T13:24:08.773Z,23.70
2018-10-16T13:29:11.943Z,23.28
2018-10-16T13:34:15.350Z,23.17
2018-10-16T13:39:18.574Z,22.88
2018-10-16T13:44:21.804Z,22.43
2018-10-16T13:49:25.033Z,21.77
2018-10-16T13:54:28.262Z,21.76
2018-10-16T13:59:31.547Z,21.45
2018-10-16T14:04:35.398Z,21.22
2018-10-16T14:09:38.562Z,20.95
2018-10-16T14:14:42.058Z,20.81
2018-10-16T14:19:45.368Z,20.75
2018-10-16T14:24:49.071Z,20.62
2018-10-16T14:29:52.312Z,20.45
2018-10-16T14:34:55.844Z,20.24
2018-10-16T14:39:59.906Z,20.17
2018-10-16T14:45:03.853Z,19.90
2018-10-16T14:50:09.157Z,19.56
2018-10-16T14:55:12.364Z,19.28
2018-10-16T15:00:15.578Z,18.97
2018-10-16T15:05:18.740Z,18.68
2018-10-16T15:10:22.343Z,18.41
2018-10-16T15:15:25.670Z,18.36
2018-10-16T15:20:28.998Z,18.14
2018-10-16T15:25:32.215Z,17.83
2018-10-16T15:30:35.551Z,17.52
2018-10-16T15:35:38.803Z,17.23
2018-10-16T15:40:42.009Z,17.08
2018-10-16T15:45:45.359Z,16.86
2018-10-16T15:50:48.572Z,16.53
2018-10-16T15:55:51.870Z,16.22
2018-10-16T16:01:00.795Z,15.89
2018-10-16T16:06:04.637Z,15.53
2018-10-16T16:11:07.825Z,15.19
2018-10-16T16:16:11.122Z,14.89
2018-10-16T16:21:21.887Z,14.59
2018-10-16T16:26:27.224Z,14.30
2018-10-16T16:31:33.742Z,14.03
2018-10-16T16:36:40.055Z,13.82
2018-10-16T16:41:44.902Z,13.69
2018-10-16T16:46:56.069Z,13.54
2018-10-16T16:52:01.346Z,13.43
2018-10-16T16:57:06.095Z,13.40
2018-10-16T17:02:10.640Z,13.39
2018-10-16T17:07:13.859Z,13.34
2018-10-16T17:12:17.042Z,13.50
2018-10-16T17:17:20.325Z,13.43
2018-10-16T17:22:23.786Z,13.42
2018-10-16T17:27:33.320Z,13.40
2018-10-16T17:32:36.885Z,13.46
2018-10-16T17:37:40.153Z,13.45
2018-10-16T17:42:43.794Z,13.41
2018-10-16T17:47:47.039Z,13.42
2018-10-16T17:52:50.322Z,13.49
2018-10-16T17:57:53.702Z,13.62
2018-10-16T18:02:56.996Z,13.57
2018-10-16T18:08:00.211Z,13.48
2018-10-16T18:13:03.561Z,13.40
2018-10-16T18:18:06.840Z,13.29
2018-10-16T18:23:10.652Z,13.20
2018-10-16T18:28:14.200Z,13.07
2018-10-16T18:33:17.453Z,12.99
2018-10-16T18:38:20.672Z,12.86
2018-10-16T18:43:23.959Z,12.74
2018-10-16T18:48:27.242Z,12.60
2018-10-16T18:53:30.489Z,12.55
2018-10-16T18:58:34.197Z,12.42
2018-10-16T19:03:37.407Z,12.28
2018-10-16T19:08:40.638Z,12.20
2018-10-16T19:13:43.960Z,12.13
2018-10-16T19:18:47.452Z,12.05
2018-10-16T19:23:51.008Z,11.96
2018-10-16T19:28:55.124Z,11.83
2018-10-16T19:33:59.012Z,11.63
2018-10-16T19:39:02.630Z,11.37
2018-10-16T19:44:05.803Z,11.17
2018-10-16T19:49:14.283Z,11.01
2018-10-16T19:54:19.027Z,10.83
2018-10-16T19:59:23.337Z,10.62
2018-10-16T20:04:26.601Z,10.49
2018-10-16T20:09:30.628Z,10.40
2018-10-16T20:14:34.466Z,10.23
2018-10-16T20:19:38.045Z,10.10
2018-10-16T20:24:43.129Z,10.01
2018-10-16T20:29:47.184Z,10.05
2018-10-16T20:34:50.356Z,9.81
2018-10-16T20:39:53.580Z,9.67
2018-10-16T20:44:56.877Z,9.52
2018-10-16T20:50:00.165Z,9.41
2018-10-16T20:55:03.515Z,9.38
2018-10-16T21:00:07.599Z,9.25
2018-10-16T21:05:11.130Z,9.16
2018-10-16T21:10:14.780Z,9.01
2018-10-16T21:15:18.025Z,8.87
2018-10-16T21:20:21.232Z,8.94
2018-10-16T21:25:24.381Z,8.79
2018-10-16T21:30:27.557Z,8.70
2018-10-16T21:35:30.833Z,8.57
2018-10-16T21:40:34.003Z,8.49
2018-10-16T21:45:37.280Z,8.41
2018-10-16T21:50:40.477Z,8.30
2018-10-16T21:55:43.738Z,8.26
2018-10-16T22:00:46.959Z,8.27
2018-10-16T22:05:50.329Z,8.24
2018-10-16T22:10:53.555Z,8.18
2018-10-16T22:15:56.675Z,8.15
2018-10-16T22:20:59.839Z,8.03
2018-10-16T22:26:03.121Z,7.97
2018-10-16T22:31:06.630Z,7.91
2018-10-16T22:36:09.861Z,7.84
2018-10-16T22:41:13.073Z,7.79
2018-10-16T22:46:16.289Z,7.68
2018-10-16T22:51:19.714Z,7.60
2018-10-16T22:56:22.869Z,7.48
2018-10-16T23:01:26.101Z,7.38
2018-10-16T23:06:29.268Z,7.29
2018-10-16T23:11:32.442Z,7.27
2018-10-16T23:16:35.563Z,7.21
2018-10-16T23:21:38.751Z,7.11
2018-10-16T23:26:41.989Z,7.08
2018-10-16T23:31:45.271Z,7.09
2018-10-16T23:36:48.602Z,6.92
2018-10-16T23:41:51.856Z,6.84
2018-10-16T23:46:55.173Z,6.76
2018-10-16T23:51:58.330Z,6.67
2018-10-16T23:57:01.466Z,6.63
